Whitman, NE

12:57 AM MDT on July 10, 2014 (GMT -0600)
Alliance Municipal (KAIA) Elev 3930 ft | 42.06 °N, 102.80 °W | Change Station

Current weather conditions updated 1 hour ago

Clear
Clear
62 °F
Feels Like 62 °F
N
8
Wind Variable Wind from East

Today is forecast to be nearly the same temperature as yesterday. Partly cloudy with a stray thunderstorm.

Today
High -- | Low -- °F
--% Chance of Precip.
Yesterday
High -- | Low -- °F
Precip. -- in
5:20 AM 8:22 PM
Waxing Gibbous, 93% visible
Pressure 29.84 in
Visibility 10.0 miles
Clouds Clear
Dew Point 60 °F
Humidity 93%
Rainfall 0.00 in
Snow Depth Not available.
UV 0 out of 12
Pollen 4.50 out of 12
Air Quality Not available.
Flu Activity Sporadic
METAR KAIA 100553Z AUTO 10007KT 10SM CLR 17/16 A2996 RMK AO2 SLP103 T01670156 10339 20167 51005 $

More Conditions Fewer Conditions

Pressure 29.84 in
Visibility 10.0 miles
Clouds Clear
Dew Point 60 °F
Humidity 93%
Rainfall 0.00 in
Snow Depth Not available.
UV 0 out of 12
Pollen 4.50 out of 12
Air Quality Not available.
Flu Activity Sporadic
METAR KAIA 100553Z AUTO 10007KT 10SM CLR 17/16 A2996 RMK AO2 SLP103 T01670156 10339 20167 51005 $

More Conditions Fewer Conditions

10-Day Weather Forecast

Almanac

Astronomy

Jul. 10, 2014 Rise Set
Actual Time 5:20 AM MDT 8:22 PM MDT
Civil Twilight 4:46 AM MDT 8:56 PM MDT
Nautical Twilight 4:03 AM MDT 9:38 PM MDT
Astronomical Twilight 3:13 AM MDT 10:29 PM MDT
Moon 6:36 PM MDT 3:34 AM MDT
Length of Visible Light 16h 09m
Length of Day
15h 02m
Tomorrow will be 1m 13s shorter.
Waxing Gibbous, 93% of the Moon is Illuminated
Today
Waxing Gibbous
Jul 12
Full
Jul 18
Last Quarter
Jul 26
New
Aug 3
First Quarter

Today's Extremes

State Highs State Lows

Community

WunderPhotos

Upload Photos

1,732,083 photos uploaded!

Nearby

Snow Depth

Station Depth Elevation
No new snow has been reported.

Earthquake Activity

City Distance Mag. Time & Date
No recent earthquake activity has been reported nearby.
Minimum magnitude displayed is 2.5.

Coastal Water Temperatures

Place Temperature
No Stations Reporting

Nearby Weather Stations

Station Location Temp. Dew Point Humidity Wind Precip. Elev Updated Type
CRN GUDMUNDSEN SAND LAB WHITMAN 5ENE NE , Whitman, NE - - 88% North  at  11 mph 0.00 in / hr 3740 ft 12:00 AM MDT MADIS

Show More Stations Show Fewer Stations